Big Bear Station Historical Data
Daily Summary for November 17, 2017 Units:  English    Metric   Both
« Previous Day
Next Day »
Daily Weekly Monthly Yearly Custom
  High: Low: Average:
Temperature: 53.4 °F 28.2 °F 44 °F
Dew Point: 43.4 °F 17.5 °F 36.5 °F
Humidity: 92 % 61 % 75 %
Wind Speed: 6.3 mph 0.0 mph 1.9 mph
Wind Gust: -999.0 mph - -
Wind:- - WSW
Pressure: 30.25 in 30.15 in -
Precipitation: 0.00 in    
Historical Graphs
 
 
Tabular Data for November 17, 2017
Time Temperature Dew Point Pressure Wind Wind Speed Wind Gust Humidity Rainfall Rate (Hourly)
00:04 46.4 °F 36.8 °F 30.17 in Calm   -999.0 mph 69 % 0 in
00:19 46.2 °F 36.2 °F 30.17 in Calm   -999.0 mph 68 % 0 in
00:35 46.0 °F 36.0 °F 30.16 in Calm   -999.0 mph 68 % 0 in
00:50 46.2 °F 33.5 °F 30.16 in NW 5.3 mph -999.0 mph 61 % 0 in
01:05 46.2 °F 35.8 °F 30.16 in Calm   -999.0 mph 67 % 0 in
01:20 46.0 °F 36.4 °F 30.16 in NNW 1.7 mph -999.0 mph 69 % 0 in
01:36 46.0 °F 35.7 °F 30.16 in Calm   -999.0 mph 67 % 0 in
01:51 46.0 °F 35.7 °F 30.15 in Calm   -999.0 mph 67 % 0 in
02:06 46.6 °F 37.0 °F 30.16 in Calm   -999.0 mph 69 % 0 in
02:21 46.6 °F 36.6 °F 30.16 in NW 1.7 mph -999.0 mph 68 % 0 in
02:37 46.6 °F 36.6 °F 30.15 in Calm   -999.0 mph 68 % 0 in
02:52 46.6 °F 36.6 °F 30.15 in Calm   -999.0 mph 68 % 0 in
03:07 46.0 °F 37.1 °F 30.15 in South 3.7 mph -999.0 mph 71 % 0 in
03:22 45.5 °F 37.7 °F 30.15 in Calm   -999.0 mph 74 % 0 in
03:37 45.3 °F 37.5 °F 30.16 in South 2.2 mph -999.0 mph 74 % 0 in
03:53 44.8 °F 38.0 °F 30.16 in Calm   -999.0 mph 77 % 0 in
04:08 44.4 °F 37.6 °F 30.16 in Calm   -999.0 mph 77 % 0 in
04:23 44.4 °F 37.3 °F 30.16 in Calm   -999.0 mph 76 % 0 in
04:38 44.4 °F 37.3 °F 30.15 in Calm   -999.0 mph 76 % 0 in
04:53 44.4 °F 38.0 °F 30.15 in Calm   -999.0 mph 78 % 0 in
05:09 44.4 °F 38.0 °F 30.15 in Calm   -999.0 mph 78 % 0 in
05:24 44.4 °F 38.3 °F 30.16 in Calm   -999.0 mph 79 % 0 in
05:39 44.4 °F 38.6 °F 30.16 in Calm   -999.0 mph 80 % 0 in
05:54 44.8 °F 39.3 °F 30.16 in Calm   -999.0 mph 81 % 0 in
06:09 45.0 °F 39.2 °F 30.16 in Calm   -999.0 mph 80 % 0 in
06:25 45.1 °F 40.2 °F 30.16 in NNW 2.2 mph -999.0 mph 83 % 0 in
06:40 45.0 °F 40.5 °F 30.16 in WNW 4.2 mph -999.0 mph 84 % 0 in
06:55 45.1 °F 40.6 °F 30.16 in Calm   -999.0 mph 84 % 0 in
07:10 45.3 °F 41.1 °F 30.17 in NNW 2.7 mph -999.0 mph 85 % 0 in
07:41 45.3 °F 42.0 °F 30.18 in NNW 3.2 mph -999.0 mph 88 % 0 in
07:56 45.1 °F 41.8 °F 30.17 in NW 3.7 mph -999.0 mph 88 % 0 in
08:11 44.8 °F 41.8 °F 30.18 in NW 3.7 mph -999.0 mph 89 % 0 in
08:27 44.2 °F 41.5 °F 30.18 in West 1.1 mph -999.0 mph 90 % 0 in
08:42 44.1 °F 41.9 °F 30.19 in Calm   -999.0 mph 92 % 0 in
08:57 44.2 °F 42.0 °F 30.19 in NW 3.2 mph -999.0 mph 92 % 0 in
09:12 43.9 °F 41.7 °F 30.19 in NW 3.2 mph -999.0 mph 92 % 0 in
09:27 45.0 °F 42.5 °F 30.19 in NW 4.2 mph -999.0 mph 91 % 0 in
09:43 45.3 °F 42.8 °F 30.19 in WNW 2.7 mph -999.0 mph 91 % 0 in
09:58 47.3 °F 43.3 °F 30.19 in NNW 4.2 mph -999.0 mph 86 % 0 in
10:13 48.6 °F 43.4 °F 30.19 in West 2.7 mph -999.0 mph 82 % 0 in
10:29 49.6 °F 43.0 °F 30.19 in NW 4.2 mph -999.0 mph 78 % 0 in
10:44 50.0 °F 42.0 °F 30.19 in SE 5.3 mph -999.0 mph 74 % 0 in
10:59 50.7 °F 41.6 °F 30.19 in South 6.3 mph -999.0 mph 71 % 0 in
11:15 51.8 °F 41.2 °F 30.18 in NNW 6.3 mph -999.0 mph 67 % 0 in
11:30 52.2 °F 42.0 °F 30.18 in WNW 3.7 mph -999.0 mph 68 % 0 in
11:45 52.2 °F 41.2 °F 30.17 in NW 2.7 mph -999.0 mph 66 % 0 in
12:00 51.3 °F 42.2 °F 30.16 in NW 3.2 mph -999.0 mph 71 % 0 in
12:16 52.2 °F 41.6 °F 30.16 in NW 2.2 mph -999.0 mph 67 % 0 in
12:31 52.9 °F 41.1 °F 30.16 in NW 3.7 mph -999.0 mph 64 % 0 in
12:47 53.4 °F 41.1 °F 30.16 in NNE 4.7 mph -999.0 mph 63 % 0 in
13:02 52.2 °F 41.6 °F 30.16 in NW 4.7 mph -999.0 mph 67 % 0 in
13:17 52.2 °F 42.0 °F 30.16 in Calm   -999.0 mph 68 % 0 in
13:33 52.3 °F 41.3 °F 30.16 in WNW 1.1 mph -999.0 mph 66 % 0 in
13:48 52.3 °F 41.7 °F 30.16 in NW 3.2 mph -999.0 mph 67 % 0 in
14:03 52.0 °F 41.8 °F 30.16 in WNW 5.8 mph -999.0 mph 68 % 0 in
14:18 51.6 °F 41.0 °F 30.16 in WNW 2.7 mph -999.0 mph 67 % 0 in
14:34 51.3 °F 41.1 °F 30.16 in Calm   -999.0 mph 68 % 0 in
14:49 51.3 °F 40.3 °F 30.16 in ESE 2.7 mph -999.0 mph 66 % 0 in
15:04 51.1 °F 41.7 °F 30.16 in WNW 2.7 mph -999.0 mph 70 % 0 in
15:19 50.0 °F 43.1 °F 30.16 in WNW 4.2 mph -999.0 mph 77 % 0 in
15:35 48.7 °F 42.5 °F 30.16 in West 2.2 mph -999.0 mph 79 % 0 in
15:50 48.0 °F 42.4 °F 30.15 in WNW 4.2 mph -999.0 mph 81 % 0 in
16:05 47.5 °F 42.0 °F 30.16 in Calm   -999.0 mph 81 % 0 in
16:20 46.9 °F 41.7 °F 30.16 in Calm   -999.0 mph 82 % 0 in
16:36 45.7 °F 40.8 °F 30.16 in Calm   -999.0 mph 83 % 0 in
16:51 44.2 °F 40.3 °F 30.16 in NNW 1.7 mph -999.0 mph 86 % 0 in
17:06 43.2 °F 39.6 °F 30.16 in Calm   -999.0 mph 87 % 0 in
17:22 42.4 °F 39.1 °F 30.17 in Calm   -999.0 mph 88 % 0 in
17:37 41.5 °F 38.5 °F 30.17 in Calm   -999.0 mph 89 % 0 in
17:52 41.2 °F 37.9 °F 30.18 in South 2.7 mph -999.0 mph 88 % 0 in
18:07 40.5 °F 36.9 °F 30.17 in Calm   -999.0 mph 87 % 0 in
18:23 39.6 °F 33.9 °F 30.18 in Calm   -999.0 mph 80 % 0 in
18:38 39.4 °F 33.7 °F 30.19 in SSW 3.2 mph -999.0 mph 80 % 0 in
18:53 38.7 °F 30.1 °F 30.18 in SSW 3.2 mph -999.0 mph 71 % 0 in
19:08 39.2 °F 29.5 °F 30.19 in South 3.2 mph -999.0 mph 68 % 0 in
19:23 38.5 °F 29.2 °F 30.20 in Calm   -999.0 mph 69 % 0 in
19:39 38.5 °F 29.2 °F 30.20 in South 3.2 mph -999.0 mph 69 % 0 in
19:54 37.8 °F 29.2 °F 30.21 in Calm   -999.0 mph 71 % 0 in
20:09 37.6 °F 28.3 °F 30.21 in Calm   -999.0 mph 69 % 0 in
20:24 36.5 °F 29.0 °F 30.21 in South 2.7 mph -999.0 mph 74 % 0 in
20:39 35.6 °F 29.4 °F 30.21 in SSW 3.7 mph -999.0 mph 78 % 0 in
20:55 35.8 °F 28.3 °F 30.21 in SSE 3.2 mph -999.0 mph 74 % 0 in
21:10 35.4 °F 26.6 °F 30.22 in East 3.7 mph -999.0 mph 70 % 0 in
21:25 34.7 °F 26.9 °F 30.21 in East 2.7 mph -999.0 mph 73 % 0 in
21:40 34.0 °F 25.9 °F 30.22 in SE 2.7 mph -999.0 mph 72 % 0 in
21:56 33.1 °F 24.0 °F 30.23 in Calm   -999.0 mph 69 % 0 in
22:12 32.7 °F 22.9 °F 30.24 in SSW 2.2 mph -999.0 mph 67 % 0 in
22:27 31.6 °F 21.9 °F 30.23 in Calm   -999.0 mph 67 % 0 in
22:42 30.9 °F 22.9 °F 30.23 in Calm   -999.0 mph 72 % 0 in
22:58 30.4 °F 23.4 °F 30.23 in South 1.7 mph -999.0 mph 75 % 0 in
23:13 30.2 °F 22.9 °F 30.24 in SSW 2.2 mph -999.0 mph 74 % 0 in
23:28 29.3 °F 17.5 °F 30.24 in Calm   -999.0 mph 61 % 0 in
23:43 28.9 °F 17.5 °F 30.24 in Calm   -999.0 mph 62 % 0 in
23:58 28.2 °F 18.6 °F 30.25 in SSW 1.7 mph -999.0 mph 67 % 0 in
Big Bear CA Weather
Compliments of Weather Underground - 1.5 mb